Time;durP1;ratioP1;P1;durP2;ratioP2;P2;SDS_P1;SDS_P2;PMS_P1;PMS_P2;Temp;Humidity;BMP_temperature;BMP_pressure;BME280_temperature;BME280_humidity;BME280_pressure;Samples;Min_cycle;Max_cycle;Signal;HPM_P1;HPM_P2
2020/12/03 00:03:38;;;;;;;17.87;10.70;;;6.80;82.70;;;;;;8371593;28;20444;-77
2020/12/03 00:07:43;;;;;;;17.57;11.40;;;6.80;82.80;;;;;;8375611;28;20444;-77
2020/12/03 00:11:51;;;;;;;19.47;11.30;;;6.80;82.60;;;;;;8373972;28;20471;-77
2020/12/03 00:16:00;;;;;;;17.83;10.93;;;6.80;82.50;;;;;;8399106;28;20448;-76
2020/12/03 00:20:16;;;;;;;17.90;11.17;;;6.80;82.40;;;;;;8370717;28;20475;-77
2020/12/03 00:24:30;;;;;;;21.00;12.47;;;6.80;82.30;;;;;;8370720;28;20457;-76
2020/12/03 00:28:37;;;;;;;23.83;12.80;;;6.80;82.60;;;;;;8387059;28;20852;-75
2020/12/03 00:32:40;;;;;;;19.03;10.63;;;6.80;82.60;;;;;;8371227;28;20448;-76
2020/12/03 00:36:42;;;;;;;21.50;11.47;;;6.80;82.60;;;;;;8367622;28;20492;-75
2020/12/03 00:40:43;;;;;;;20.20;10.73;;;6.80;82.50;;;;;;8371897;28;20469;-76
2020/12/03 00:44:48;;;;;;;16.43;10.90;;;6.80;82.50;;;;;;8374062;28;20504;-76
2020/12/03 00:48:58;;;;;;;18.27;10.50;;;6.80;83.00;;;;;;8349455;28;20477;-77
2020/12/03 00:52:59;;;;;;;21.30;11.37;;;6.80;83.10;;;;;;8374856;28;20449;-76
2020/12/03 00:57:11;;;;;;;17.67;10.40;;;6.80;83.30;;;;;;8370157;28;20447;-76
2020/12/03 01:01:16;;;;;;;18.03;9.03;;;6.70;83.00;;;;;;8370089;28;20776;-77
2020/12/03 01:05:17;;;;;;;11.37;8.07;;;6.70;82.60;;;;;;8395714;28;20440;-76
2020/12/03 01:09:20;;;;;;;15.77;9.60;;;6.70;82.80;;;;;;8370795;28;20449;-76
2020/12/03 01:13:37;;;;;;;13.30;9.57;;;6.70;83.00;;;;;;8370007;28;20505;-76
2020/12/03 01:17:57;;;;;;;13.87;9.27;;;6.60;82.90;;;;;;8382180;28;20452;-76
2020/12/03 01:22:00;;;;;;;15.10;8.70;;;6.60;82.90;;;;;;8369292;28;20471;-76
2020/12/03 01:26:02;;;;;;;15.83;9.87;;;6.60;82.60;;;;;;8404713;28;20874;-76
2020/12/03 01:30:08;;;;;;;14.10;7.80;;;6.60;82.60;;;;;;8379030;28;20448;-76
2020/12/03 01:34:13;;;;;;;12.97;7.90;;;6.60;82.20;;;;;;8387253;28;20445;-76
2020/12/03 01:38:13;;;;;;;12.73;7.43;;;6.60;82.00;;;;;;8367431;28;20480;-75
2020/12/03 01:42:15;;;;;;;13.20;8.40;;;6.60;82.00;;;;;;8367371;28;20810;-76
2020/12/03 01:46:23;;;;;;;11.10;7.50;;;6.60;82.00;;;;;;8369018;28;20243;-77
2020/12/03 01:50:30;;;;;;;10.67;7.70;;;6.60;81.70;;;;;;8373306;28;20990;-76
2020/12/03 01:54:33;;;;;;;9.57;7.20;;;6.60;81.30;;;;;;8357325;28;20459;-76
2020/12/03 01:58:38;;;;;;;11.70;7.50;;;6.60;81.60;;;;;;8371917;28;20456;-76
2020/12/03 02:02:43;;;;;;;10.27;7.80;;;6.60;81.30;;;;;;8378900;28;20861;-76
2020/12/03 02:06:43;;;;;;;11.60;7.43;;;6.60;81.30;;;;;;8379614;28;20447;-76
2020/12/03 02:10:44;;;;;;;11.77;7.80;;;6.60;81.60;;;;;;8369334;28;20449;-76
2020/12/03 02:14:45;;;;;;;11.50;7.27;;;6.60;80.80;;;;;;8375386;28;20559;-75
2020/12/03 02:18:47;;;;;;;10.77;6.40;;;6.60;81.10;;;;;;8391457;28;20217;-76
2020/12/03 02:22:58;;;;;;;11.53;7.10;;;6.60;80.80;;;;;;8396095;28;20604;-75
2020/12/03 02:27:09;;;;;;;9.23;6.57;;;6.60;80.60;;;;;;8372532;28;20475;-75
2020/12/03 02:31:11;;;;;;;12.27;6.70;;;6.60;80.80;;;;;;8375266;28;20816;-76
2020/12/03 02:35:16;;;;;;;12.30;6.30;;;6.60;80.80;;;;;;8378252;28;20948;-76
2020/12/03 02:39:18;;;;;;;18.83;7.47;;;6.60;80.80;;;;;;8371597;28;20563;-75
2020/12/03 02:43:24;;;;;;;10.07;7.00;;;6.60;81.10;;;;;;8373737;28;20485;-76
2020/12/03 02:47:30;;;;;;;9.30;6.43;;;6.60;80.50;;;;;;8399462;28;20441;-76
2020/12/03 02:51:37;;;;;;;10.20;6.77;;;6.60;80.80;;;;;;8389108;28;20794;-77
2020/12/03 02:55:49;;;;;;;12.50;9.07;;;6.60;80.80;;;;;;8378444;28;20480;-76
2020/12/03 02:59:54;;;;;;;12.87;7.90;;;6.60;81.10;;;;;;8353957;28;20502;-76
2020/12/03 03:04:04;;;;;;;16.90;8.47;;;6.60;81.70;;;;;;8353863;28;20460;-76
2020/12/03 03:08:04;;;;;;;11.37;7.93;;;6.60;81.10;;;;;;8373217;28;20511;-76
2020/12/03 03:12:05;;;;;;;13.43;7.83;;;6.60;81.00;;;;;;8368071;28;20475;-76
2020/12/03 03:16:10;;;;;;;12.83;7.60;;;6.60;81.20;;;;;;8381415;28;20198;-76
2020/12/03 03:20:14;;;;;;;13.47;8.30;;;6.60;81.20;;;;;;8375943;28;21051;-76
2020/12/03 03:24:17;;;;;;;12.87;8.13;;;6.60;80.80;;;;;;8378348;28;20496;-76
2020/12/03 03:28:25;;;;;;;13.93;9.00;;;6.60;81.20;;;;;;8353850;28;20445;-76
2020/12/03 03:32:27;;;;;;;14.07;9.00;;;6.60;81.00;;;;;;8372972;28;20456;-76
2020/12/03 03:36:28;;;;;;;13.97;9.30;;;6.60;80.50;;;;;;8357860;28;20539;-76
2020/12/03 03:40:36;;;;;;;12.40;9.23;;;6.50;80.70;;;;;;8377560;28;20820;-77
2020/12/03 03:44:41;;;;;;;12.47;8.90;;;6.50;80.80;;;;;;8370103;28;20525;-77
2020/12/03 03:48:43;;;;;;;16.03;8.60;;;6.50;80.80;;;;;;8407331;28;20455;-77
2020/12/03 03:52:47;;;;;;;15.10;10.03;;;6.50;80.70;;;;;;8370396;28;20492;-76
2020/12/03 03:56:57;;;;;;;14.47;8.93;;;6.50;80.70;;;;;;8375195;28;20536;-76
2020/12/03 04:01:02;;;;;;;12.47;7.77;;;6.50;81.20;;;;;;8358330;28;20515;-76
2020/12/03 04:05:04;;;;;;;15.80;9.60;;;6.40;81.00;;;;;;8369483;28;20447;-76
2020/12/03 04:09:05;;;;;;;14.60;8.50;;;6.40;80.80;;;;;;8374321;28;20445;-76
2020/12/03 04:13:11;;;;;;;11.63;7.40;;;6.40;81.00;;;;;;8367294;28;20451;-76
2020/12/03 04:17:16;;;;;;;17.20;7.50;;;6.40;80.50;;;;;;8390371;28;20187;-76
2020/12/03 04:21:21;;;;;;;16.13;10.03;;;6.40;80.60;;;;;;8369466;28;20521;-76
2020/12/03 04:25:23;;;;;;;15.63;8.93;;;6.40;80.70;;;;;;8372343;28;20468;-76
2020/12/03 04:29:31;;;;;;;14.80;9.83;;;6.40;80.80;;;;;;8359468;28;20530;-76
2020/12/03 04:33:34;;;;;;;13.17;9.23;;;6.40;80.80;;;;;;8397704;28;20448;-76
2020/12/03 04:37:42;;;;;;;14.57;8.50;;;6.40;80.90;;;;;;8372835;28;20564;-75
2020/12/03 04:41:42;;;;;;;15.73;9.30;;;6.40;80.70;;;;;;8373186;28;20476;-75
2020/12/03 04:46:13;;;;;;;16.40;9.63;;;6.40;81.30;;;;;;8374507;28;20501;-76
2020/12/03 04:50:24;;;;;;;16.93;9.20;;;6.40;80.80;;;;;;8374736;28;20201;-75
2020/12/03 04:54:48;;;;;;;23.93;10.60;;;6.40;81.00;;;;;;8370434;28;20509;-76
2020/12/03 04:59:25;;;;;;;17.27;10.73;;;6.40;81.40;;;;;;8386857;28;20473;-76
2020/12/03 05:03:47;;;;;;;17.40;10.20;;;6.40;81.00;;;;;;8375725;28;20439;-75
2020/12/03 05:07:56;;;;;;;15.13;11.07;;;6.40;80.90;;;;;;8367500;28;20583;-75
2020/12/03 05:12:17;;;;;;;15.30;8.53;;;6.40;81.20;;;;;;8369011;28;20456;-76
2020/12/03 05:16:55;;;;;;;15.60;7.70;;;6.50;81.20;;;;;;8369482;28;20460;-75
2020/12/03 05:20:57;;;;;;;20.83;10.03;;;6.50;80.90;;;;;;8358803;28;20494;-76
2020/12/03 05:25:04;;;;;;;17.13;10.60;;;6.50;80.90;;;;;;8371657;28;20561;-76
2020/12/03 05:29:08;;;;;;;20.57;10.37;;;6.50;81.50;;;;;;8375572;28;20458;-76
2020/12/03 05:33:10;;;;;;;14.77;8.87;;;6.50;80.80;;;;;;8376580;28;21175;-76
2020/12/03 05:37:18;;;;;;;16.67;9.17;;;6.50;80.90;;;;;;8380659;28;20483;-76
2020/12/03 05:41:23;;;;;;;18.43;10.50;;;6.50;80.70;;;;;;8364203;28;20487;-76
2020/12/03 05:45:32;;;;;;;15.83;10.90;;;6.50;80.60;;;;;;8381460;28;20939;-76
2020/12/03 05:49:40;;;;;;;15.90;10.30;;;6.50;80.50;;;;;;8379283;28;20820;-76
2020/12/03 05:53:52;;;;;;;16.37;9.97;;;6.50;80.60;;;;;;8376078;28;20451;-75
2020/12/03 05:58:13;;;;;;;21.13;9.87;;;6.50;80.90;;;;;;8396912;28;20436;-76
2020/12/03 06:02:26;;;;;;;21.27;10.87;;;6.50;80.80;;;;;;8371911;28;20479;-75
2020/12/03 06:07:11;;;;;;;19.40;10.30;;;6.50;80.90;;;;;;8375485;28;20501;-75
2020/12/03 06:11:33;;;;;;;18.10;9.87;;;6.50;80.90;;;;;;8262061;28;20444;-76
2020/12/03 06:15:45;;;;;;;19.13;10.37;;;6.50;80.80;;;;;;8335199;28;20485;-76
2020/12/03 06:19:53;;;;;;;15.90;9.27;;;6.40;80.90;;;;;;8379311;28;20477;-75
2020/12/03 06:23:57;;;;;;;24.30;10.30;;;6.50;81.10;;;;;;8372657;28;20441;-76
2020/12/03 06:28:17;;;;;;;21.27;11.97;;;6.50;80.80;;;;;;8380052;28;20443;-77
2020/12/03 06:32:57;;;;;;;19.80;10.70;;;6.40;80.80;;;;;;8385112;28;20456;-76
2020/12/03 06:37:14;;;;;;;21.40;11.70;;;6.40;80.90;;;;;;8380510;28;20464;-76
2020/12/03 06:41:47;;;;;;;20.17;12.20;;;6.40;80.70;;;;;;8378703;28;20480;-75
2020/12/03 06:46:12;;;;;;;18.07;9.10;;;6.40;80.80;;;;;;8396435;28;21010;-76
2020/12/03 06:50:43;;;;;;;56.67;27.80;;;6.40;81.00;;;;;;8387342;28;20443;-75
2020/12/03 06:55:29;;;;;;;26.10;15.03;;;6.40;80.70;;;;;;8377247;28;20455;-76
2020/12/03 06:59:33;;;;;;;20.93;11.13;;;6.40;80.90;;;;;;8376385;28;20475;-76
2020/12/03 07:03:36;;;;;;;23.80;14.87;;;6.40;80.60;;;;;;8384219;28;20448;-75
2020/12/03 07:08:16;;;;;;;51.93;29.53;;;6.50;80.60;;;;;;8381568;28;20191;-75
2020/12/03 07:12:51;;;;;;;16.30;9.37;;;6.50;80.70;;;;;;8386262;28;20441;-75
2020/12/03 07:17:12;;;;;;;15.90;9.43;;;6.50;80.50;;;;;;8387656;28;20463;-75
2020/12/03 07:21:17;;;;;;;17.27;11.90;;;6.60;80.80;;;;;;8371039;28;20507;-75
2020/12/03 07:25:18;;;;;;;15.97;8.70;;;6.60;81.20;;;;;;8389211;28;20471;-75
2020/12/03 07:29:28;;;;;;;12.17;8.63;;;6.60;80.70;;;;;;8368400;28;20483;-75
2020/12/03 07:34:07;;;;;;;11.60;7.00;;;6.60;80.80;;;;;;8378835;28;20847;-75
2020/12/03 07:38:28;;;;;;;13.73;8.13;;;6.60;80.40;;;;;;8388021;28;20505;-75
2020/12/03 07:42:29;;;;;;;12.70;8.20;;;6.60;80.60;;;;;;8375825;28;20479;-75
2020/12/03 07:46:31;;;;;;;10.03;6.60;;;6.60;80.80;;;;;;8386665;28;20532;-75
2020/12/03 07:50:38;;;;;;;12.13;7.73;;;6.60;80.80;;;;;;8379975;28;20201;-75
2020/12/03 07:54:44;;;;;;;11.10;7.27;;;6.70;80.50;;;;;;8395441;28;20483;-75
2020/12/03 07:58:45;;;;;;;11.97;7.93;;;6.70;80.40;;;;;;8377097;28;20445;-76
2020/12/03 08:02:57;;;;;;;15.97;8.67;;;6.80;80.30;;;;;;8404548;28;20493;-75
2020/12/03 08:07:06;;;;;;;13.83;8.47;;;6.90;80.40;;;;;;8375696;28;20445;-75
2020/12/03 08:11:45;;;;;;;14.50;8.97;;;6.90;80.10;;;;;;8372451;28;20448;-75
2020/12/03 08:16:00;;;;;;;16.53;8.00;;;6.90;80.10;;;;;;8375184;28;20487;-75
2020/12/03 08:20:12;;;;;;;13.87;8.07;;;6.90;80.10;;;;;;8392550;28;20467;-74
2020/12/03 08:24:25;;;;;;;14.70;8.23;;;7.00;80.00;;;;;;8368946;28;20519;-75
2020/12/03 08:28:35;;;;;;;17.60;9.37;;;7.00;79.60;;;;;;8375767;28;20440;-75
2020/12/03 08:33:00;;;;;;;12.80;7.97;;;7.00;79.60;;;;;;8362198;28;20502;-74
2020/12/03 08:37:02;;;;;;;9.87;6.60;;;7.00;79.70;;;;;;8379103;28;20440;-75
2020/12/03 08:41:10;;;;;;;17.53;8.90;;;7.10;79.20;;;;;;8373905;28;20461;-75
2020/12/03 08:45:11;;;;;;;12.63;8.00;;;7.00;79.50;;;;;;8376223;28;20457;-75
2020/12/03 08:49:23;;;;;;;12.97;8.80;;;7.10;79.80;;;;;;8382467;28;20441;-75
2020/12/03 08:53:26;;;;;;;16.23;8.57;;;7.10;79.60;;;;;;8375887;28;20237;-75
2020/12/03 08:57:40;;;;;;;25.17;12.00;;;7.10;79.40;;;;;;8361614;28;20445;-75
2020/12/03 09:02:20;;;;;;;20.50;10.87;;;7.10;79.50;;;;;;8381564;28;20549;-75
2020/12/03 09:06:30;;;;;;;18.70;9.47;;;7.10;80.00;;;;;;8251511;28;20448;-75
2020/12/03 09:10:38;;;;;;;14.20;9.33;;;7.10;79.90;;;;;;8276146;28;20917;-75
2020/12/03 09:14:41;;;;;;;12.77;7.60;;;7.10;79.30;;;;;;8267919;28;20556;-75
2020/12/03 09:18:42;;;;;;;17.30;9.27;;;7.20;79.10;;;;;;8383287;28;20459;-76
2020/12/03 09:22:53;;;;;;;13.00;8.30;;;7.20;79.40;;;;;;8373569;28;20554;-75
2020/12/03 09:27:02;;;;;;;14.83;8.87;;;7.20;79.10;;;;;;8376099;28;20456;-75
2020/12/03 09:31:07;;;;;;;14.17;9.60;;;7.20;79.20;;;;;;8373853;28;20452;-74
2020/12/03 09:35:09;;;;;;;12.97;8.83;;;7.20;78.80;;;;;;8380490;28;20481;-75
2020/12/03 09:39:11;;;;;;;16.30;7.40;;;7.20;78.70;;;;;;8384066;28;21007;-75
2020/12/03 09:43:14;;;;;;;14.00;9.27;;;7.20;78.20;;;;;;8374421;28;20461;-75
2020/12/03 09:47:18;;;;;;;14.07;8.00;;;7.20;78.10;;;;;;8377200;28;20805;-75
2020/12/03 09:51:24;;;;;;;14.10;8.83;;;7.30;78.40;;;;;;8372137;28;20490;-75
2020/12/03 09:55:27;;;;;;;13.33;8.30;;;7.30;77.90;;;;;;8371936;28;20459;-75
2020/12/03 09:59:28;;;;;;;13.10;7.90;;;7.30;77.70;;;;;;8369823;28;20503;-75
2020/12/03 10:03:35;;;;;;;14.17;9.00;;;7.30;77.80;;;;;;8358947;28;20455;-76
2020/12/03 10:07:48;;;;;;;15.87;8.07;;;7.30;77.60;;;;;;8376396;28;20183;-75
2020/12/03 10:12:19;;;;;;;17.70;9.43;;;7.30;78.10;;;;;;8367035;28;20840;-76
2020/12/03 10:16:23;;;;;;;11.83;7.00;;;7.50;77.60;;;;;;8382176;28;21253;-76
2020/12/03 10:20:24;;;;;;;17.93;9.70;;;7.50;77.30;;;;;;8380309;28;20468;-75
2020/12/03 10:24:57;;;;;;;16.93;9.50;;;7.50;77.50;;;;;;8411999;28;20471;-75
2020/12/03 10:29:21;;;;;;;12.27;8.27;;;7.50;77.60;;;;;;8404454;28;20437;-75
2020/12/03 10:33:26;;;;;;;13.60;8.20;;;7.50;77.10;;;;;;8396963;28;20480;-75
2020/12/03 10:37:45;;;;;;;22.80;12.47;;;7.50;76.50;;;;;;8376028;28;20443;-75
2020/12/03 10:41:52;;;;;;;116.07;36.63;;;7.50;76.90;;;;;;8379181;28;20976;-75
2020/12/03 10:45:57;;;;;;;23.10;11.47;;;7.60;76.70;;;;;;8385122;28;20448;-75
2020/12/03 10:49:58;;;;;;;12.97;7.53;;;7.50;76.40;;;;;;8374165;28;20456;-75
2020/12/03 10:54:00;;;;;;;11.97;8.20;;;7.60;76.30;;;;;;8413200;28;20804;-75
2020/12/03 10:58:11;;;;;;;12.17;7.53;;;7.60;77.00;;;;;;8374470;28;20452;-75
2020/12/03 11:02:29;;;;;;;11.33;6.80;;;7.60;76.50;;;;;;8381955;28;20530;-75
2020/12/03 11:06:32;;;;;;;10.33;7.73;;;7.70;75.60;;;;;;8368925;28;20498;-75
2020/12/03 11:10:41;;;;;;;13.47;8.60;;;7.70;74.90;;;;;;8374399;28;20440;-73
2020/12/03 11:14:47;;;;;;;9.60;6.60;;;7.70;75.60;;;;;;8394685;28;22058;-75
2020/12/03 11:18:52;;;;;;;15.57;9.30;;;7.70;75.00;;;;;;8382442;28;20782;-75
2020/12/03 11:23:08;;;;;;;12.27;7.70;;;7.80;74.90;;;;;;8388862;28;20952;-75
2020/12/03 11:27:22;;;;;;;9.97;7.27;;;7.80;73.90;;;;;;8390638;28;20457;-76
2020/12/03 11:31:31;;;;;;;10.00;6.50;;;7.90;74.50;;;;;;8397146;28;20437;-75
2020/12/03 11:35:34;;;;;;;9.47;7.20;;;8.00;74.90;;;;;;8385267;28;20460;-74
2020/12/03 11:39:36;;;;;;;12.67;7.77;;;8.20;74.90;;;;;;8380838;28;21008;-72
2020/12/03 11:52:21;;;;;;;6.03;5.40;;;9.30;71.00;;;;;;8393531;28;20442;-72
2020/12/03 11:56:21;;;;;;;9.07;5.47;;;9.70;68.70;;;;;;8379392;28;20447;-74
2020/12/03 12:00:23;;;;;;;8.00;5.60;;;9.80;67.50;;;;;;8375407;28;20467;-72
2020/12/03 12:04:48;;;;;;;9.70;6.07;;;9.80;66.90;;;;;;8380478;28;20282;-72
2020/12/03 12:09:04;;;;;;;6.53;4.73;;;9.70;67.10;;;;;;8388805;28;20427;-72
2020/12/03 12:13:06;;;;;;;7.47;4.50;;;9.50;67.60;;;;;;8386834;28;20433;-71
2020/12/03 12:17:08;;;;;;;8.23;5.07;;;9.40;67.40;;;;;;8363593;28;20433;-72
2020/12/03 12:21:10;;;;;;;11.47;6.13;;;9.30;68.00;;;;;;8351590;28;20952;-71
2020/12/03 12:25:13;;;;;;;7.20;5.30;;;9.20;68.10;;;;;;8341081;28;20461;-71
2020/12/03 12:29:15;;;;;;;9.00;5.13;;;9.20;68.30;;;;;;8355876;28;20453;-71
2020/12/03 12:33:30;;;;;;;4.80;4.20;;;9.30;67.90;;;;;;8360170;28;20442;-72
2020/12/03 12:37:32;;;;;;;7.03;5.13;;;9.30;67.60;;;;;;8369908;28;20454;-71
2020/12/03 12:41:35;;;;;;;10.33;5.70;;;9.20;67.30;;;;;;8364728;28;20474;-74
2020/12/03 12:45:37;;;;;;;5.93;4.20;;;9.10;67.60;;;;;;8352820;28;21149;-74
2020/12/03 12:49:45;;;;;;;5.80;4.40;;;9.00;68.00;;;;;;8374118;28;20457;-74
2020/12/03 12:53:46;;;;;;;4.07;3.40;;;8.90;68.60;;;;;;8373831;28;20534;-74
2020/12/03 12:57:46;;;;;;;7.20;4.70;;;8.80;68.20;;;;;;8374992;28;20441;-74
2020/12/03 13:01:50;;;;;;;8.17;4.07;;;8.70;68.70;;;;;;8377757;28;20468;-74
2020/12/03 13:05:53;;;;;;;4.50;3.60;;;8.60;69.70;;;;;;8366421;28;20199;-74
2020/12/03 13:09:55;;;;;;;10.83;4.30;;;8.60;70.00;;;;;;8375195;28;21163;-74
2020/12/03 13:13:58;;;;;;;6.17;4.10;;;8.50;69.80;;;;;;8384477;28;20492;-75
2020/12/03 13:18:00;;;;;;;4.77;4.27;;;8.50;70.50;;;;;;8338988;28;20443;-74
2020/12/03 13:22:01;;;;;;;3.70;3.40;;;8.50;69.80;;;;;;8367904;28;20473;-73
2020/12/03 13:26:04;;;;;;;5.47;4.40;;;8.50;70.10;;;;;;8370531;28;20467;-73
2020/12/03 13:30:08;;;;;;;4.50;4.10;;;8.40;69.80;;;;;;8384965;28;20202;-73
2020/12/03 13:34:09;;;;;;;10.13;5.83;;;8.30;69.80;;;;;;8376738;28;20432;-73
2020/12/03 13:38:12;;;;;;;6.67;5.17;;;8.20;70.40;;;;;;8379727;28;20506;-73
2020/12/03 13:42:13;;;;;;;6.73;5.20;;;8.20;70.90;;;;;;8372406;28;20555;-74
2020/12/03 13:46:15;;;;;;;9.67;5.50;;;8.20;71.30;;;;;;8371070;28;20471;-74
2020/12/03 13:50:18;;;;;;;6.97;5.33;;;8.20;71.20;;;;;;8381378;28;21231;-74
2020/12/03 13:54:19;;;;;;;9.27;7.17;;;8.10;71.30;;;;;;8381190;28;20445;-74
2020/12/03 13:58:29;;;;;;;9.50;6.17;;;8.00;71.20;;;;;;8373968;28;20461;-75
2020/12/03 14:02:36;;;;;;;9.80;6.10;;;8.00;71.90;;;;;;8377783;28;20464;-76
2020/12/03 14:06:37;;;;;;;6.00;5.20;;;7.90;72.00;;;;;;8376871;28;20448;-75
2020/12/03 14:10:39;;;;;;;10.17;7.83;;;7.80;72.20;;;;;;8354158;28;20445;-74
2020/12/03 14:14:44;;;;;;;8.57;5.43;;;7.80;72.60;;;;;;8372465;28;20959;-74
2020/12/03 14:18:45;;;;;;;6.80;4.90;;;7.80;71.90;;;;;;8378314;28;20476;-73
2020/12/03 14:22:47;;;;;;;6.07;4.40;;;7.80;72.20;;;;;;8403947;28;20484;-74
2020/12/03 14:26:56;;;;;;;8.93;5.90;;;7.80;72.30;;;;;;8376266;28;20477;-74
2020/12/03 14:30:57;;;;;;;6.40;5.03;;;7.80;72.20;;;;;;8375592;28;20519;-75
2020/12/03 14:34:59;;;;;;;8.93;6.00;;;7.80;72.40;;;;;;8383618;28;20443;-74
2020/12/03 14:38:59;;;;;;;9.43;6.83;;;7.70;72.50;;;;;;8379855;28;20441;-73
2020/12/03 14:43:01;;;;;;;11.07;7.03;;;7.70;73.20;;;;;;8405348;28;20583;-74
2020/12/03 14:47:05;;;;;;;7.37;5.70;;;7.70;73.40;;;;;;8376593;28;20186;-75
2020/12/03 14:51:06;;;;;;;8.27;5.93;;;7.70;73.70;;;;;;8374852;28;20484;-74
2020/12/03 14:55:19;;;;;;;12.83;8.27;;;7.60;74.00;;;;;;8378134;28;20473;-74
2020/12/03 14:59:20;;;;;;;8.80;6.70;;;7.60;74.40;;;;;;8385697;28;20476;-74
2020/12/03 15:03:27;;;;;;;10.40;6.50;;;7.50;74.70;;;;;;8367380;28;21309;-74
2020/12/03 15:07:33;;;;;;;10.60;6.10;;;7.40;74.80;;;;;;8357554;28;20467;-73
2020/12/03 15:11:50;;;;;;;10.93;6.13;;;7.40;75.00;;;;;;8387597;28;20497;-73
2020/12/03 15:15:51;;;;;;;7.57;6.73;;;7.40;74.90;;;;;;8393599;28;20440;-74
2020/12/03 15:19:52;;;;;;;8.83;6.03;;;7.40;75.20;;;;;;8382649;28;20464;-74
2020/12/03 15:23:57;;;;;;;9.20;7.80;;;7.40;75.10;;;;;;8370932;28;20214;-74
2020/12/03 15:28:00;;;;;;;9.67;7.07;;;7.40;75.20;;;;;;8370431;28;20459;-74
2020/12/03 15:32:02;;;;;;;12.90;7.30;;;7.40;75.70;;;;;;8368934;28;20971;-75
2020/12/03 15:36:12;;;;;;;8.57;5.80;;;7.40;76.00;;;;;;8376236;28;20460;-75
2020/12/03 15:40:14;;;;;;;7.77;6.50;;;7.30;76.00;;;;;;8370238;28;20829;-74
2020/12/03 15:44:15;;;;;;;8.43;6.03;;;7.20;76.40;;;;;;8374052;28;20456;-74
2020/12/03 15:48:24;;;;;;;16.43;9.43;;;7.20;76.70;;;;;;8373952;28;20523;-74
2020/12/03 15:52:29;;;;;;;9.10;7.50;;;7.20;76.60;;;;;;8393523;28;20658;-76
2020/12/03 15:56:31;;;;;;;11.80;7.43;;;7.20;76.60;;;;;;8373690;28;20953;-75
2020/12/03 16:00:31;;;;;;;11.53;7.60;;;7.20;76.40;;;;;;8379446;28;21130;-75
2020/12/03 16:04:34;;;;;;;7.03;5.30;;;7.20;76.40;;;;;;8378788;28;20796;-74
2020/12/03 16:08:35;;;;;;;7.87;5.57;;;7.20;76.10;;;;;;8392285;28;20189;-74
2020/12/03 16:12:37;;;;;;;6.40;5.37;;;7.30;75.40;;;;;;8376427;28;20447;-74
2020/12/03 16:16:38;;;;;;;8.35;5.55;;;7.30;75.60;;;;;;8377081;28;21071;-75
2020/12/03 16:20:45;;;;;;;5.80;5.07;;;7.40;75.60;;;;;;8377675;28;20218;-75
2020/12/03 16:24:49;;;;;;;5.90;4.60;;;7.40;75.30;;;;;;8358869;28;20476;-75
2020/12/03 16:29:00;;;;;;;7.40;5.30;;;7.50;74.90;;;;;;8380037;28;20520;-74
2020/12/03 16:33:01;;;;;;;15.40;10.07;;;7.50;74.90;;;;;;8369154;28;20441;-73
2020/12/03 16:37:04;;;;;;;15.83;11.90;;;7.50;75.30;;;;;;8349385;28;20463;-74
2020/12/03 16:41:07;;;;;;;21.60;14.23;;;7.40;76.60;;;;;;8365274;28;20250;-74
2020/12/03 16:45:15;;;;;;;15.57;11.27;;;7.30;77.60;;;;;;8351269;28;20544;-74
2020/12/03 16:49:18;;;;;;;7.07;6.40;;;7.20;78.50;;;;;;8340736;28;20523;-73
2020/12/03 16:53:19;;;;;;;5.17;4.47;;;7.20;77.30;;;;;;8376072;28;20503;-74
2020/12/03 16:57:28;;;;;;;6.63;4.60;;;7.40;76.50;;;;;;8342203;28;20528;-74
2020/12/03 17:01:29;;;;;;;4.70;4.27;;;7.50;75.40;;;;;;8318865;28;20840;-73
2020/12/03 17:05:31;;;;;;;5.80;4.60;;;7.60;75.20;;;;;;8364346;28;20812;-74
2020/12/03 17:09:32;;;;;;;6.27;5.60;;;7.70;74.90;;;;;;8347284;28;20805;-74
2020/12/03 17:13:35;;;;;;;7.57;6.40;;;7.70;75.20;;;;;;8349745;28;20456;-74
2020/12/03 17:17:39;;;;;;;5.77;5.13;;;7.70;75.20;;;;;;8380023;28;20459;-74
2020/12/03 17:21:44;;;;;;;4.53;4.10;;;7.70;75.40;;;;;;8364321;28;20498;-74
2020/12/03 17:25:45;;;;;;;4.20;3.50;;;7.60;75.20;;;;;;8384623;28;21750;-75
2020/12/03 17:29:51;;;;;;;5.80;3.80;;;7.60;75.00;;;;;;8384139;28;21017;-73
2020/12/03 17:33:52;;;;;;;4.20;3.80;;;7.70;74.80;;;;;;8347960;28;20246;-74
2020/12/03 17:37:54;;;;;;;4.77;3.87;;;7.70;74.70;;;;;;8375024;28;20465;-74
2020/12/03 17:41:58;;;;;;;3.13;2.93;;;7.60;74.80;;;;;;8376394;28;20274;-74
2020/12/03 17:45:59;;;;;;;5.83;4.30;;;7.60;74.60;;;;;;8371229;28;20464;-74
2020/12/03 17:50:02;;;;;;;4.20;3.73;;;7.70;74.50;;;;;;8381997;28;20817;-74
2020/12/03 17:54:18;;;;;;;3.50;3.20;;;7.70;74.40;;;;;;8388025;28;20944;-75
2020/12/03 17:58:20;;;;;;;4.07;2.80;;;7.70;74.70;;;;;;8371397;28;20511;-74
2020/12/03 18:02:21;;;;;;;3.10;2.90;;;7.70;74.80;;;;;;8371925;28;20487;-74
2020/12/03 18:06:32;;;;;;;3.93;3.53;;;7.70;74.10;;;;;;8369571;28;20449;-74
2020/12/03 18:10:45;;;;;;;10.33;5.47;;;7.80;74.00;;;;;;8371448;28;20195;-74
2020/12/03 18:14:47;;;;;;;8.83;4.70;;;7.80;73.70;;;;;;8334454;28;20452;-75
2020/12/03 18:19:08;;;;;;;13.23;7.57;;;7.80;73.20;;;;;;8375215;28;20954;-74
2020/12/03 18:23:17;;;;;;;14.97;8.40;;;7.80;73.00;;;;;;8372990;28;20511;-74
2020/12/03 18:27:23;;;;;;;13.60;8.27;;;7.80;73.20;;;;;;8366986;28;20857;-74
2020/12/03 18:31:25;;;;;;;8.20;4.10;;;7.80;73.50;;;;;;8369346;28;20452;-74
2020/12/03 18:35:27;;;;;;;5.90;4.63;;;7.70;73.30;;;;;;8368186;28;20442;-74
2020/12/03 18:39:29;;;;;;;3.97;3.20;;;7.70;73.50;;;;;;8336217;28;20498;-75
2020/12/03 18:43:30;;;;;;;11.93;8.43;;;7.80;72.90;;;;;;8359663;28;20538;-75
2020/12/03 18:47:33;;;;;;;10.00;6.37;;;7.80;73.00;;;;;;8366992;28;20445;-75
2020/12/03 18:51:34;;;;;;;3.70;2.60;;;7.80;72.80;;;;;;8386050;28;20202;-75
2020/12/03 18:55:35;;;;;;;4.40;3.20;;;7.70;72.90;;;;;;8357565;28;21315;-74
2020/12/03 18:59:36;;;;;;;11.87;5.47;;;7.70;73.20;;;;;;8345854;28;20981;-74
2020/12/03 19:03:46;;;;;;;10.30;6.10;;;7.70;73.50;;;;;;8349667;28;20453;-73
2020/12/03 19:07:46;;;;;;;8.90;5.00;;;7.70;73.50;;;;;;8351782;28;21678;-75
2020/12/03 19:11:52;;;;;;;6.07;5.40;;;7.60;73.70;;;;;;8380182;28;20718;-75
2020/12/03 19:15:53;;;;;;;5.57;4.50;;;7.60;73.80;;;;;;8359228;28;20510;-75
2020/12/03 19:19:57;;;;;;;10.73;6.80;;;7.60;73.40;;;;;;8349917;28;20530;-74
2020/12/03 19:24:02;;;;;;;8.70;7.40;;;7.60;73.40;;;;;;8365096;28;20907;-75
2020/12/03 19:28:07;;;;;;;4.87;3.37;;;7.50;73.50;;;;;;8376109;28;20460;-75
2020/12/03 19:32:10;;;;;;;5.90;5.30;;;7.50;73.30;;;;;;8364125;28;20497;-74
2020/12/03 19:36:12;;;;;;;4.67;4.23;;;7.50;73.30;;;;;;8377797;28;20439;-75
2020/12/03 19:40:13;;;;;;;5.63;4.30;;;7.50;73.30;;;;;;8351203;28;20546;-75
2020/12/03 19:44:13;;;;;;;5.33;4.83;;;7.50;73.10;;;;;;8353464;28;20535;-74
2020/12/03 19:48:16;;;;;;;5.90;4.73;;;7.50;72.90;;;;;;8365053;28;20198;-74
2020/12/03 19:52:19;;;;;;;4.00;3.70;;;7.50;72.90;;;;;;8384754;28;20447;-75
2020/12/03 19:56:23;;;;;;;5.43;4.93;;;7.50;73.20;;;;;;8364194;28;20449;-75
2020/12/03 20:00:25;;;;;;;5.43;4.93;;;7.50;73.20;;;;;;8351264;28;20475;-74
2020/12/03 20:04:25;;;;;;;5.13;4.37;;;7.50;73.20;;;;;;8367817;28;20447;-74
2020/12/03 20:08:35;;;;;;;5.20;4.80;;;7.50;73.10;;;;;;8365072;28;20444;-73
2020/12/03 20:12:36;;;;;;;5.10;4.60;;;7.50;72.90;;;;;;8383326;28;20182;-74
2020/12/03 20:16:38;;;;;;;5.30;4.80;;;7.50;72.80;;;;;;8364539;28;20545;-74
2020/12/03 20:20:50;;;;;;;6.53;4.97;;;7.50;72.70;;;;;;8368473;28;20496;-75
2020/12/03 20:24:57;;;;;;;8.00;5.30;;;7.50;72.60;;;;;;8375334;28;20913;-74
2020/12/03 20:29:05;;;;;;;5.97;5.33;;;7.50;72.60;;;;;;8349232;28;20449;-74
2020/12/03 20:33:10;;;;;;;6.23;4.73;;;7.50;72.40;;;;;;8365777;28;20568;-74
2020/12/03 20:37:19;;;;;;;7.10;6.03;;;7.50;72.70;;;;;;8366473;28;20510;-75
2020/12/03 20:41:23;;;;;;;5.80;5.10;;;7.50;72.50;;;;;;8383597;28;21243;-74
2020/12/03 20:45:23;;;;;;;6.00;5.37;;;7.50;72.60;;;;;;8389248;28;20885;-74
2020/12/03 20:49:31;;;;;;;6.80;5.47;;;7.40;72.70;;;;;;8344661;28;20794;-74
2020/12/03 20:53:31;;;;;;;6.13;5.40;;;7.50;72.60;;;;;;8372404;28;20992;-74
2020/12/03 20:57:32;;;;;;;9.53;7.13;;;7.50;72.40;;;;;;8340551;28;20480;-73
2020/12/03 21:01:33;;;;;;;7.80;5.97;;;7.50;72.50;;;;;;8366016;28;20225;-74
2020/12/03 21:05:34;;;;;;;9.20;6.73;;;7.50;72.60;;;;;;8332730;28;20222;-75
2020/12/03 21:09:45;;;;;;;9.40;6.40;;;7.50;72.40;;;;;;8372423;28;20452;-74
2020/12/03 21:13:48;;;;;;;6.77;5.83;;;7.50;72.40;;;;;;8365079;28;20187;-73
2020/12/03 21:17:53;;;;;;;6.97;4.50;;;7.50;72.60;;;;;;8372342;28;20967;-73
2020/12/03 21:21:54;;;;;;;6.90;5.07;;;7.50;72.50;;;;;;8366816;28;20476;-74
2020/12/03 21:25:55;;;;;;;6.53;4.83;;;7.50;72.60;;;;;;8363442;28;20463;-74
2020/12/03 21:29:57;;;;;;;5.80;5.30;;;7.50;72.80;;;;;;8379346;28;20466;-75
2020/12/03 21:34:03;;;;;;;5.87;5.30;;;7.40;73.00;;;;;;8351357;28;20460;-74
2020/12/03 21:38:08;;;;;;;4.70;4.17;;;7.40;73.20;;;;;;8365991;28;20542;-73
2020/12/03 21:42:08;;;;;;;4.43;4.03;;;7.40;73.50;;;;;;8364654;28;20470;-74